Time;durP1;ratioP1;P1;durP2;ratioP2;P2;SDS_P1;SDS_P2;PMS_P1;PMS_P2;Temp;Humidity;BMP_temperature;BMP_pressure;BME280_temperature;BME280_humidity;BME280_pressure;Samples;Min_cycle;Max_cycle;Signal;HPM_P1;HPM_P2
2022/01/01 00:01:47;;;;;;;8.50;6.70;;;18.30;48.00;;;;;;5126774;27;46864;-16
2022/01/01 00:04:14;;;;;;;8.27;6.82;;;18.30;48.00;;;;;;5126377;27;46917;-16
2022/01/01 00:06:42;;;;;;;7.53;6.60;;;18.30;48.00;;;;;;5126760;27;46953;-17
2022/01/01 00:09:09;;;;;;;8.77;7.10;;;18.30;48.00;;;;;;5126671;27;47074;-16
2022/01/01 00:11:35;;;;;;;8.02;7.22;;;18.30;48.00;;;;;;5126942;27;47288;-17
2022/01/01 00:14:02;;;;;;;9.52;7.95;;;18.30;48.00;;;;;;5126492;27;47649;-17
2022/01/01 00:16:29;;;;;;;10.30;8.35;;;18.30;48.00;;;;;;5126588;27;46837;-16
2022/01/01 00:18:56;;;;;;;10.20;8.35;;;18.20;48.00;;;;;;5126316;27;46929;-16
2022/01/01 00:21:22;;;;;;;10.70;8.77;;;18.20;48.00;;;;;;5126826;27;46937;-16
2022/01/01 00:23:50;;;;;;;9.93;8.73;;;18.20;48.00;;;;;;5126403;27;48058;-17
2022/01/01 00:26:17;;;;;;;11.77;9.23;;;18.20;48.10;;;;;;5126657;27;46852;-16
2022/01/01 00:28:44;;;;;;;11.13;9.07;;;18.10;48.00;;;;;;5126168;27;46817;-17
2022/01/01 00:31:11;;;;;;;10.45;8.90;;;18.10;48.00;;;;;;5126656;27;46938;-17
2022/01/01 00:33:37;;;;;;;11.07;9.65;;;18.10;48.00;;;;;;5126239;27;48048;-17
2022/01/01 00:36:04;;;;;;;12.00;9.60;;;18.10;48.00;;;;;;5126451;27;46894;-17
2022/01/01 00:38:31;;;;;;;12.90;10.38;;;18.10;48.00;;;;;;5126126;27;46911;-17
2022/01/01 00:40:59;;;;;;;14.05;10.98;;;18.10;48.10;;;;;;5126596;27;46892;-17
2022/01/01 00:43:26;;;;;;;11.50;10.02;;;18.10;48.00;;;;;;5126489;27;48035;-16
2022/01/01 00:45:53;;;;;;;12.75;10.60;;;18.00;48.00;;;;;;5125807;27;46956;-17
2022/01/01 00:48:19;;;;;;;15.27;10.82;;;18.00;48.10;;;;;;5126433;27;47019;-16
2022/01/01 00:50:46;;;;;;;12.77;10.50;;;18.00;48.10;;;;;;5126127;27;46836;-17
2022/01/01 00:53:13;;;;;;;14.00;11.07;;;18.00;48.10;;;;;;5125845;27;46840;-16
2022/01/01 00:55:39;;;;;;;11.82;10.45;;;18.00;48.10;;;;;;5126055;27;46771;-17
2022/01/01 00:58:07;;;;;;;11.95;10.50;;;18.00;48.10;;;;;;5126256;27;46892;-16
2022/01/01 01:00:34;;;;;;;13.05;10.60;;;17.90;48.00;;;;;;5129143;27;47140;-17
2022/01/01 01:03:01;;;;;;;12.63;10.23;;;17.90;48.60;;;;;;5129688;27;49051;-17
2022/01/01 01:05:28;;;;;;;12.82;10.07;;;17.90;48.00;;;;;;5129328;27;46889;-16
2022/01/01 01:07:54;;;;;;;14.23;10.85;;;17.90;48.00;;;;;;5129489;27;46820;-17
2022/01/01 01:10:21;;;;;;;14.07;11.20;;;17.90;48.00;;;;;;5129549;27;46799;-17
2022/01/01 01:12:48;;;;;;;14.77;11.18;;;17.80;48.00;;;;;;5129257;27;48997;-17
2022/01/01 01:15:18;;;;;;;13.52;10.98;;;17.80;48.00;;;;;;5129075;27;46883;-17
2022/01/01 01:17:46;;;;;;;13.50;11.02;;;17.80;48.00;;;;;;5129264;27;46854;-17
2022/01/01 01:20:13;;;;;;;15.93;11.07;;;17.80;48.00;;;;;;5129584;27;47171;-17
2022/01/01 01:22:39;;;;;;;13.85;10.40;;;17.80;48.10;;;;;;5129384;27;48361;-17
2022/01/01 01:25:07;;;;;;;13.70;10.85;;;17.80;48.10;;;;;;5129251;27;46920;-17
2022/01/01 01:27:35;;;;;;;14.20;10.95;;;17.70;48.00;;;;;;5129280;27;46874;-18
2022/01/01 01:30:01;;;;;;;13.25;10.85;;;17.70;48.00;;;;;;5129308;27;46924;-17
2022/01/01 01:32:29;;;;;;;14.75;11.82;;;17.70;48.00;;;;;;5129116;27;48838;-16
2022/01/01 01:34:56;;;;;;;12.27;10.10;;;17.70;48.10;;;;;;5129136;27;47006;-17
2022/01/01 01:37:23;;;;;;;13.43;11.32;;;17.70;48.10;;;;;;5129161;27;46867;-17
2022/01/01 01:39:50;;;;;;;13.18;10.82;;;17.60;48.10;;;;;;5128992;27;47135;-17
2022/01/01 01:42:16;;;;;;;12.32;10.70;;;17.60;48.00;;;;;;5128959;27;48053;-17
2022/01/01 01:44:44;;;;;;;14.55;11.10;;;17.60;48.10;;;;;;5128679;27;47030;-16
2022/01/01 01:47:15;;;;;;;14.85;11.00;;;17.60;48.10;;;;;;5129009;27;46797;-18
2022/01/01 01:49:44;;;;;;;13.32;11.07;;;17.60;48.10;;;;;;5128822;27;47073;-17
2022/01/01 01:52:11;;;;;;;12.73;10.30;;;17.60;48.10;;;;;;5128580;27;48798;-16
2022/01/01 01:54:38;;;;;;;14.77;11.85;;;17.50;48.00;;;;;;5128567;27;46873;-17
2022/01/01 01:57:05;;;;;;;12.98;11.50;;;17.50;48.10;;;;;;5129031;27;46809;-18
2022/01/01 01:59:31;;;;;;;14.82;11.52;;;17.50;48.10;;;;;;5128682;27;46894;-17
2022/01/01 02:01:58;;;;;;;13.00;11.32;;;17.50;48.10;;;;;;5128816;27;49042;-17
2022/01/01 02:04:25;;;;;;;13.98;11.13;;;17.50;48.10;;;;;;5128651;27;46900;-16
2022/01/01 02:06:53;;;;;;;13.75;11.45;;;17.50;48.10;;;;;;5128584;27;47001;-17
2022/01/01 02:09:19;;;;;;;14.48;11.25;;;17.50;48.00;;;;;;5128743;27;46932;-17
2022/01/01 02:11:46;;;;;;;15.50;12.20;;;17.40;48.00;;;;;;5127670;27;48887;-18
2022/01/01 02:14:23;;;;;;;13.02;11.63;;;17.40;48.10;;;;;;5128009;27;47274;-17
2022/01/01 02:17:07;;;;;;;15.48;12.30;;;17.40;48.10;;;;;;5128700;27;46901;-18
2022/01/01 02:19:49;;;;;;;12.88;11.50;;;17.40;48.10;;;;;;5128743;27;46919;-16
2022/01/01 02:22:17;;;;;;;14.20;11.70;;;17.30;48.10;;;;;;5128228;27;46911;-16
2022/01/01 02:24:43;;;;;;;13.20;10.77;;;17.30;48.10;;;;;;5127862;27;46928;-17
2022/01/01 02:27:11;;;;;;;12.68;11.00;;;17.30;48.10;;;;;;5128479;27;46838;-16
2022/01/01 02:29:38;;;;;;;13.75;10.63;;;17.30;48.10;;;;;;5128274;27;46941;-17
2022/01/01 02:32:09;;;;;;;12.68;11.32;;;17.30;48.10;;;;;;5128302;27;48356;-17
2022/01/01 02:34:35;;;;;;;13.30;10.77;;;17.20;48.10;;;;;;5128147;27;47621;-16
2022/01/01 02:37:02;;;;;;;12.85;10.75;;;17.20;48.10;;;;;;5128028;27;46822;-16
2022/01/01 02:39:30;;;;;;;14.90;10.82;;;17.20;48.10;;;;;;5128070;27;46836;-17
2022/01/01 02:41:57;;;;;;;14.38;11.18;;;17.20;48.10;;;;;;5127843;27;48114;-18
2022/01/01 02:44:24;;;;;;;11.63;10.25;;;17.20;48.10;;;;;;5127306;27;46978;-17
2022/01/01 02:46:52;;;;;;;15.05;10.65;;;17.20;48.10;;;;;;5128109;27;47013;-16
2022/01/01 02:49:19;;;;;;;11.40;9.80;;;17.20;48.10;;;;;;5128099;27;46903;-17
2022/01/01 02:51:46;;;;;;;12.05;10.38;;;17.10;48.10;;;;;;5127852;27;48816;-17
2022/01/01 02:54:12;;;;;;;11.82;9.90;;;17.10;48.10;;;;;;5127360;27;46814;-18
2022/01/01 02:56:40;;;;;;;12.02;9.65;;;17.10;48.20;;;;;;5127570;27;46915;-15
2022/01/01 02:59:07;;;;;;;10.63;9.52;;;17.10;48.20;;;;;;5127743;27;46841;-15
2022/01/01 03:01:34;;;;;;;10.60;9.40;;;17.10;48.20;;;;;;5127709;27;48812;-15
2022/01/01 03:04:00;;;;;;;11.23;9.30;;;17.10;48.20;;;;;;5127789;27;47016;-15
2022/01/01 03:06:28;;;;;;;11.98;9.60;;;17.10;48.20;;;;;;5127703;27;47087;-15
2022/01/01 03:08:56;;;;;;;10.90;9.15;;;17.00;48.10;;;;;;5127731;27;47134;-15
2022/01/01 03:11:23;;;;;;;12.35;9.15;;;17.00;48.20;;;;;;5127524;27;47704;-15
2022/01/01 03:13:51;;;;;;;10.52;8.85;;;17.00;48.20;;;;;;5127443;27;46983;-15
2022/01/01 03:16:18;;;;;;;10.30;8.98;;;17.00;48.20;;;;;;5127337;27;46876;-15
2022/01/01 03:18:45;;;;;;;10.07;8.90;;;17.00;48.20;;;;;;5127410;27;46959;-16
2022/01/01 03:21:11;;;;;;;11.68;9.50;;;17.00;48.20;;;;;;5126989;27;47845;-16
2022/01/01 03:23:38;;;;;;;10.07;8.65;;;17.00;48.20;;;;;;5126918;27;46872;-17
2022/01/01 03:26:05;;;;;;;10.18;8.98;;;17.00;48.30;;;;;;5127498;27;46927;-16
2022/01/01 03:28:31;;;;;;;10.73;8.90;;;16.90;48.20;;;;;;5127555;27;46903;-16
2022/01/01 03:30:59;;;;;;;10.40;8.60;;;16.90;48.20;;;;;;5126872;27;46863;-16
2022/01/01 03:33:26;;;;;;;9.18;8.07;;;16.90;48.20;;;;;;5127285;27;46983;-16
2022/01/01 03:35:53;;;;;;;10.15;8.70;;;16.90;48.30;;;;;;5127112;27;46850;-16
2022/01/01 03:38:20;;;;;;;8.90;7.93;;;16.90;48.30;;;;;;5127117;27;47090;-15
2022/01/01 03:40:46;;;;;;;8.95;7.75;;;16.90;48.30;;;;;;5126867;27;49033;-16
2022/01/01 03:43:13;;;;;;;10.43;8.65;;;16.90;48.40;;;;;;5127197;27;46735;-16
2022/01/01 03:45:40;;;;;;;8.05;7.25;;;16.90;48.40;;;;;;5126821;27;46883;-16
2022/01/01 03:48:08;;;;;;;8.77;7.50;;;16.90;48.40;;;;;;5127459;27;47055;-15
2022/01/01 03:50:35;;;;;;;9.25;7.38;;;16.80;48.30;;;;;;5126627;27;47873;-16
2022/01/01 03:53:01;;;;;;;10.23;7.63;;;16.80;48.40;;;;;;5126648;27;46862;-15
2022/01/01 03:55:28;;;;;;;9.15;7.93;;;16.80;48.40;;;;;;5126473;27;46854;-16
2022/01/01 03:57:55;;;;;;;8.23;7.20;;;16.80;48.40;;;;;;5127205;27;46938;-16
2022/01/01 04:00:22;;;;;;;8.88;7.72;;;16.80;48.40;;;;;;5126340;27;47062;-16
2022/01/01 04:02:48;;;;;;;7.90;7.10;;;16.70;48.40;;;;;;5126819;27;46879;-16
2022/01/01 04:05:16;;;;;;;8.20;7.15;;;16.80;48.40;;;;;;5126723;27;46747;-15
2022/01/01 04:07:43;;;;;;;8.75;6.78;;;16.80;48.50;;;;;;5126987;27;46859;-15
2022/01/01 04:10:10;;;;;;;8.48;7.57;;;16.70;48.30;;;;;;5126252;27;47037;-15
2022/01/01 04:12:37;;;;;;;8.02;7.03;;;16.70;48.30;;;;;;5126973;27;47253;-15
2022/01/01 04:15:05;;;;;;;7.55;6.50;;;16.70;48.40;;;;;;5126349;27;46833;-15
2022/01/01 04:17:35;;;;;;;8.10;6.40;;;16.70;48.50;;;;;;5126603;27;47258;-16
2022/01/01 04:20:03;;;;;;;9.15;7.00;;;16.70;48.40;;;;;;5126158;27;48223;-15
2022/01/01 04:22:32;;;;;;;8.07;6.63;;;16.70;48.40;;;;;;5126537;27;47024;-16
2022/01/01 04:24:58;;;;;;;8.13;6.65;;;16.70;48.50;;;;;;5126380;27;46800;-16
2022/01/01 04:27:25;;;;;;;7.78;6.78;;;16.70;48.50;;;;;;5126719;27;47237;-15
2022/01/01 04:29:52;;;;;;;7.95;6.15;;;16.70;48.50;;;;;;5126208;27;48363;-15
2022/01/01 04:32:18;;;;;;;7.30;6.60;;;16.70;48.50;;;;;;5126530;27;47197;-16
2022/01/01 04:34:45;;;;;;;7.10;6.40;;;16.60;48.50;;;;;;5127996;27;46876;-15
2022/01/01 04:37:15;;;;;;;7.80;6.78;;;16.60;48.50;;;;;;5130332;27;47251;-17
2022/01/01 04:39:43;;;;;;;7.28;6.50;;;16.60;48.50;;;;;;5129515;27;48117;-16
2022/01/01 04:42:09;;;;;;;7.53;6.47;;;16.60;48.50;;;;;;5130027;27;46919;-15
2022/01/01 04:44:36;;;;;;;7.03;6.13;;;16.60;48.60;;;;;;5129912;27;46754;-16
2022/01/01 04:47:03;;;;;;;6.72;6.03;;;16.60;48.60;;;;;;5129916;27;47107;-15
2022/01/01 04:49:30;;;;;;;6.82;6.13;;;16.60;48.60;;;;;;5129708;27;49033;-16
2022/01/01 04:51:57;;;;;;;6.55;5.82;;;16.60;48.60;;;;;;5129562;27;46948;-16
2022/01/01 04:54:23;;;;;;;6.03;5.40;;;16.60;48.60;;;;;;5129570;27;46807;-16
2022/01/01 04:56:51;;;;;;;6.10;5.32;;;16.60;48.50;;;;;;5129845;27;47234;-17
2022/01/01 04:59:18;;;;;;;7.18;5.97;;;16.60;48.60;;;;;;5129600;27;48117;-16
2022/01/01 05:01:45;;;;;;;6.18;5.57;;;16.50;48.50;;;;;;5129404;27;46743;-16
2022/01/01 05:04:11;;;;;;;7.78;6.22;;;16.50;49.10;;;;;;5129471;27;46984;-16
2022/01/01 05:06:40;;;;;;;6.53;5.78;;;16.50;48.50;;;;;;5129567;27;47331;-16
2022/01/01 05:09:07;;;;;;;6.45;5.82;;;16.50;48.50;;;;;;5129309;27;48139;-16
2022/01/01 05:11:33;;;;;;;6.20;5.60;;;16.50;48.50;;;;;;5129382;27;46910;-16
2022/01/01 05:14:01;;;;;;;7.63;6.00;;;16.50;48.50;;;;;;5129274;27;46859;-16
2022/01/01 05:16:28;;;;;;;7.07;6.22;;;16.50;48.50;;;;;;5129410;27;46918;-16
2022/01/01 05:18:55;;;;;;;10.73;6.15;;;16.50;48.50;;;;;;5128986;27;48005;-17
2022/01/01 05:21:21;;;;;;;6.88;6.18;;;16.40;48.50;;;;;;5129338;27;47047;-16
2022/01/01 05:23:48;;;;;;;6.18;5.07;;;16.40;48.40;;;;;;5129418;27;46826;-16
2022/01/01 05:26:15;;;;;;;6.38;5.78;;;16.40;48.40;;;;;;5129574;27;47148;-16
2022/01/01 05:28:44;;;;;;;6.20;5.28;;;16.40;48.40;;;;;;5129178;27;48091;-16
2022/01/01 05:31:12;;;;;;;7.15;5.70;;;16.40;48.40;;;;;;5128875;27;46833;-16
2022/01/01 05:33:39;;;;;;;6.30;5.05;;;16.40;48.40;;;;;;5129330;27;46992;-16
2022/01/01 05:36:06;;;;;;;6.70;5.70;;;16.40;48.40;;;;;;5129164;27;47319;-17
2022/01/01 05:38:33;;;;;;;6.60;5.82;;;16.40;48.50;;;;;;5128751;27;48744;-16
2022/01/01 05:40:59;;;;;;;5.80;5.15;;;16.30;48.40;;;;;;5129147;27;46924;-17
2022/01/01 05:43:26;;;;;;;5.93;5.32;;;16.30;48.40;;;;;;5129095;27;46793;-17
2022/01/01 05:45:53;;;;;;;6.10;5.50;;;16.30;48.50;;;;;;5127566;27;46816;-16
2022/01/01 05:48:21;;;;;;;6.35;5.75;;;16.30;48.50;;;;;;5128975;27;48286;-16
2022/01/01 05:50:48;;;;;;;6.78;5.55;;;16.30;48.50;;;;;;5128682;27;47261;-15
2022/01/01 05:53:15;;;;;;;5.68;5.10;;;16.30;48.50;;;;;;5129066;27;46830;-16
2022/01/01 05:55:41;;;;;;;6.05;5.13;;;16.30;48.50;;;;;;5128736;27;46827;-16
2022/01/01 05:58:08;;;;;;;5.75;5.15;;;16.20;48.50;;;;;;5128523;27;48724;-16
2022/01/01 06:00:35;;;;;;;6.13;5.38;;;16.20;48.50;;;;;;5128404;27;46752;-17
2022/01/01 06:03:02;;;;;;;6.10;4.85;;;16.20;48.50;;;;;;5128877;27;46832;-16
2022/01/01 06:05:31;;;;;;;7.65;5.25;;;16.20;48.50;;;;;;5128947;27;47300;-16
2022/01/01 06:07:58;;;;;;;5.95;5.00;;;16.20;48.50;;;;;;5128584;27;48172;-16
2022/01/01 06:10:25;;;;;;;5.70;5.05;;;16.20;48.50;;;;;;5128434;27;47089;-16
2022/01/01 06:12:51;;;;;;;5.78;5.18;;;16.20;48.50;;;;;;5128466;27;47085;-17
2022/01/01 06:15:18;;;;;;;5.53;4.80;;;16.10;48.50;;;;;;5128276;27;47112;-16
2022/01/01 06:17:45;;;;;;;5.68;5.00;;;16.10;48.50;;;;;;5128217;27;49044;-16
2022/01/01 06:20:12;;;;;;;6.07;4.75;;;16.10;48.50;;;;;;5127981;27;46921;-16
2022/01/01 06:22:40;;;;;;;6.30;4.60;;;16.10;48.50;;;;;;5128518;27;46878;-17
2022/01/01 06:25:07;;;;;;;6.07;5.15;;;16.10;48.50;;;;;;5128179;27;47313;-16
2022/01/01 06:27:34;;;;;;;5.47;4.82;;;16.10;48.50;;;;;;5128121;27;47892;-16
2022/01/01 06:30:01;;;;;;;5.50;4.82;;;16.10;48.40;;;;;;5127895;27;46796;-16
2022/01/01 06:32:30;;;;;;;5.75;5.00;;;16.00;48.40;;;;;;5128314;27;47085;-16
2022/01/01 06:34:57;;;;;;;5.07;4.55;;;16.00;49.10;;;;;;5128056;27;47251;-16
2022/01/01 06:37:23;;;;;;;5.10;4.47;;;16.00;48.40;;;;;;5127808;27;47848;-15
2022/01/01 06:39:51;;;;;;;5.50;4.53;;;16.00;48.40;;;;;;5128035;27;46938;-16
2022/01/01 06:42:18;;;;;;;4.90;4.40;;;16.00;48.40;;;;;;5128181;27;46877;-16
2022/01/01 06:44:45;;;;;;;4.70;4.22;;;16.00;48.50;;;;;;5127415;27;46852;-16
2022/01/01 06:47:11;;;;;;;5.03;4.07;;;16.00;48.50;;;;;;5127919;27;48886;-17
2022/01/01 06:49:38;;;;;;;5.15;4.47;;;16.00;48.50;;;;;;5127725;27;46934;-16
2022/01/01 06:52:05;;;;;;;4.60;3.95;;;16.00;48.40;;;;;;5127654;27;46938;-16
2022/01/01 06:54:32;;;;;;;5.35;4.65;;;15.90;48.40;;;;;;5128153;27;47296;-16
2022/01/01 06:57:00;;;;;;;5.65;4.70;;;15.90;48.50;;;;;;5127412;27;47958;-16
2022/01/01 06:59:27;;;;;;;6.53;4.63;;;15.90;48.50;;;;;;5127395;27;46996;-16
2022/01/01 07:01:53;;;;;;;6.55;4.47;;;15.90;48.50;;;;;;5127944;27;46832;-15
2022/01/01 07:04:20;;;;;;;4.65;4.20;;;15.90;48.50;;;;;;5127588;27;46906;-15
2022/01/01 07:06:48;;;;;;;5.10;4.60;;;15.90;48.50;;;;;;5127701;27;48969;-16
2022/01/01 07:09:15;;;;;;;5.07;4.50;;;15.90;48.50;;;;;;5127284;27;46820;-16
2022/01/01 07:11:42;;;;;;;4.93;4.30;;;15.80;48.40;;;;;;5127620;27;46806;-16
2022/01/01 07:14:11;;;;;;;4.65;4.10;;;15.80;48.40;;;;;;5127494;27;46996;-16
2022/01/01 07:16:37;;;;;;;4.80;3.83;;;15.90;48.50;;;;;;5127301;27;48299;-15
2022/01/01 07:19:04;;;;;;;5.18;4.28;;;15.80;48.50;;;;;;5127271;27;47124;-16
2022/01/01 07:21:31;;;;;;;4.38;3.97;;;15.80;48.50;;;;;;5127377;27;46995;-15
2022/01/01 07:23:57;;;;;;;4.60;4.20;;;15.80;48.50;;;;;;5127562;27;46907;-16
2022/01/01 07:26:24;;;;;;;6.70;3.88;;;15.70;48.50;;;;;;5127534;27;48887;-16
2022/01/01 07:28:51;;;;;;;4.95;4.30;;;15.70;48.50;;;;;;5127303;27;46900;-16
2022/01/01 07:31:20;;;;;;;4.60;4.20;;;15.70;48.40;;;;;;5127403;27;46850;-16
2022/01/01 07:33:46;;;;;;;4.55;4.10;;;15.70;48.50;;;;;;5127534;27;46891;-16
2022/01/01 07:36:13;;;;;;;5.43;4.40;;;15.70;48.40;;;;;;5127137;27;49038;-17
2022/01/01 07:38:40;;;;;;;6.03;4.35;;;15.70;48.40;;;;;;5126939;27;46839;-15
2022/01/01 07:41:06;;;;;;;4.93;3.95;;;15.70;48.40;;;;;;5126965;27;46860;-16
2022/01/01 07:43:33;;;;;;;4.05;3.60;;;15.70;48.50;;;;;;5127350;27;47304;-16
2022/01/01 07:46:00;;;;;;;4.25;3.70;;;15.70;48.50;;;;;;5126529;27;47931;-16
2022/01/01 07:48:28;;;;;;;4.70;3.88;;;15.70;48.50;;;;;;5127095;27;46990;-16
2022/01/01 07:50:55;;;;;;;4.47;4.05;;;15.60;48.40;;;;;;5127154;27;46925;-17
2022/01/01 07:53:22;;;;;;;4.65;4.25;;;15.60;48.40;;;;;;5127169;27;46906;-16
2022/01/01 07:55:48;;;;;;;4.22;3.67;;;15.60;48.50;;;;;;5126706;27;47769;-15
2022/01/01 07:58:15;;;;;;;5.20;4.10;;;15.60;48.50;;;;;;5126613;27;46795;-16
2022/01/01 08:00:42;;;;;;;4.78;4.20;;;15.60;48.50;;;;;;5126543;27;46825;-16
2022/01/01 08:03:10;;;;;;;4.32;3.90;;;15.60;49.00;;;;;;5126861;27;46899;-15
2022/01/01 08:05:39;;;;;;;3.92;3.55;;;15.60;48.50;;;;;;5126352;27;49025;-16
2022/01/01 08:08:05;;;;;;;3.95;3.55;;;15.60;48.40;;;;;;5126144;27;46910;-15
2022/01/01 08:10:34;;;;;;;3.67;3.38;;;15.60;48.50;;;;;;5126319;27;46853;-16
2022/01/01 08:13:01;;;;;;;4.93;3.60;;;15.50;48.50;;;;;;5126553;27;47355;-16
2022/01/01 08:15:28;;;;;;;4.13;3.65;;;15.50;48.50;;;;;;5126453;27;47938;-16
2022/01/01 08:17:54;;;;;;;4.10;3.70;;;15.50;48.40;;;;;;5126117;27;46906;-16
2022/01/01 08:20:21;;;;;;;4.32;3.80;;;15.50;48.40;;;;;;5125798;27;46926;-16
2022/01/01 08:22:49;;;;;;;4.05;3.65;;;15.50;48.50;;;;;;5125239;27;47259;-17
2022/01/01 08:25:16;;;;;;;4.55;4.13;;;15.50;48.40;;;;;;5124646;27;48136;-16
2022/01/01 08:27:43;;;;;;;4.22;3.65;;;15.50;48.40;;;;;;5124424;27;47443;-17
2022/01/01 08:30:13;;;;;;;3.85;3.45;;;15.50;48.40;;;;;;5124650;27;47044;-16
2022/01/01 08:32:40;;;;;;;3.72;3.42;;;15.50;48.50;;;;;;5125125;27;47137;-17
2022/01/01 08:35:07;;;;;;;4.53;3.53;;;15.50;48.50;;;;;;5124887;27;48380;-18
2022/01/01 08:37:34;;;;;;;3.95;3.60;;;15.50;48.40;;;;;;5126039;27;46963;-17
2022/01/01 08:40:02;;;;;;;4.53;3.60;;;15.50;48.50;;;;;;5126061;27;46929;-17
2022/01/01 08:42:29;;;;;;;3.90;3.10;;;15.40;48.50;;;;;;5126642;27;46865;-16
2022/01/01 08:44:56;;;;;;;3.67;3.30;;;15.40;48.50;;;;;;5125883;27;49045;-16
2022/01/01 08:47:26;;;;;;;4.30;3.67;;;15.40;48.50;;;;;;5125925;27;46972;-16
2022/01/01 08:49:54;;;;;;;3.70;3.30;;;15.40;48.40;;;;;;5125347;27;47059;-16
2022/01/01 08:52:21;;;;;;;4.05;3.65;;;15.40;48.50;;;;;;5125533;27;47300;-17
2022/01/01 08:54:47;;;;;;;4.43;3.75;;;15.40;48.50;;;;;;5125881;27;49051;-16
2022/01/01 08:57:15;;;;;;;3.92;3.53;;;15.40;48.50;;;;;;5125888;27;46924;-17
2022/01/01 08:59:42;;;;;;;3.75;3.38;;;15.40;48.50;;;;;;5126030;27;46824;-16
2022/01/01 09:02:09;;;;;;;4.07;3.50;;;15.40;48.50;;;;;;5126376;27;47276;-17
2022/01/01 09:04:36;;;;;;;3.67;3.30;;;15.40;48.50;;;;;;5125882;27;48087;-16
2022/01/01 09:07:03;;;;;;;4.63;3.67;;;15.40;48.50;;;;;;5126020;27;47241;-16
2022/01/01 09:09:30;;;;;;;3.97;3.58;;;15.40;48.60;;;;;;5125792;27;46994;-16
2022/01/01 09:11:57;;;;;;;5.10;4.00;;;15.40;48.60;;;;;;5126253;27;47016;-16
2022/01/01 09:14:25;;;;;;;3.60;3.30;;;15.40;48.60;;;;;;5125650;27;47055;-16
2022/01/01 09:16:52;;;;;;;3.55;3.25;;;15.40;48.60;;;;;;5125746;27;47087;-16
2022/01/01 09:19:19;;;;;;;3.83;3.40;;;15.40;48.70;;;;;;5125632;27;46893;-16
2022/01/01 09:21:46;;;;;;;4.22;3.05;;;15.40;48.60;;;;;;5129044;27;47296;-16
2022/01/01 09:24:12;;;;;;;4.45;3.90;;;15.40;48.70;;;;;;5129101;27;48826;-17
2022/01/01 09:26:39;;;;;;;4.10;3.63;;;15.40;48.60;;;;;;5129373;27;47368;-16
2022/01/01 09:29:06;;;;;;;3.97;3.50;;;15.40;48.70;;;;;;5129263;27;46918;-17
2022/01/01 09:31:34;;;;;;;4.00;3.33;;;15.40;48.60;;;;;;5129175;27;46845;-15
2022/01/01 09:34:03;;;;;;;3.47;3.17;;;15.40;48.70;;;;;;5129039;27;47954;-16
2022/01/01 09:36:30;;;;;;;4.22;3.55;;;15.40;48.70;;;;;;5128965;27;47158;-16
2022/01/01 09:38:56;;;;;;;4.00;3.50;;;15.40;48.70;;;;;;5128977;27;46882;-16
2022/01/01 09:41:23;;;;;;;3.83;3.40;;;15.40;48.70;;;;;;5129145;27;46910;-16
2022/01/01 09:43:50;;;;;;;3.92;3.40;;;15.40;48.70;;;;;;5128881;27;47954;-16
2022/01/01 09:46:16;;;;;;;3.88;3.30;;;15.40;48.80;;;;;;5129220;27;46970;-16
2022/01/01 09:48:44;;;;;;;3.83;3.40;;;15.40;48.70;;;;;;5128739;27;46855;-16
2022/01/01 09:51:11;;;;;;;3.70;3.40;;;15.50;48.70;;;;;;5129200;27;46887;-16
2022/01/01 09:53:38;;;;;;;3.78;3.25;;;15.50;48.60;;;;;;5128660;27;48012;-16
2022/01/01 09:56:05;;;;;;;3.50;3.20;;;15.50;49.20;;;;;;5128872;27;46891;-16
2022/01/01 09:58:33;;;;;;;3.72;3.42;;;15.50;48.50;;;;;;5128823;27;46845;-17
2022/01/01 10:01:00;;;;;;;4.13;3.72;;;15.50;48.70;;;;;;5128833;27;46914;-17
2022/01/01 10:03:28;;;;;;;4.63;3.47;;;15.50;48.60;;;;;;5128656;27;49047;-17
2022/01/01 10:06:01;;;;;;;3.72;3.42;;;15.60;48.70;;;;;;5128274;27;47458;-17
2022/01/01 10:08:28;;;;;;;3.85;3.40;;;15.60;48.70;;;;;;5128827;27;46797;-17
2022/01/01 10:10:55;;;;;;;3.92;3.33;;;15.60;48.70;;;;;;5128827;27;46920;-17
2022/01/01 10:13:32;;;;;;;3.80;3.20;;;15.60;48.70;;;;;;5128056;27;48202;-17
2022/01/01 10:16:00;;;;;;;3.20;2.92;;;15.60;48.80;;;;;;5128560;27;46875;-17
2022/01/01 10:18:30;;;;;;;3.70;3.10;;;15.60;48.70;;;;;;5128590;27;46810;-17
2022/01/01 10:21:00;;;;;;;3.45;2.75;;;15.60;48.70;;;;;;5128468;27;46822;-16
2022/01/01 10:23:29;;;;;;;3.85;3.20;;;15.60;48.70;;;;;;5128206;27;46911;-16
2022/01/01 10:29:04;;;;;;;3.25;2.95;;;15.70;48.80;;;;;;5125503;27;46943;-16
2022/01/01 10:31:32;;;;;;;3.20;2.90;;;15.70;48.90;;;;;;5127616;27;46937;-16
2022/01/01 10:33:59;;;;;;;3.08;2.80;;;15.70;48.80;;;;;;5127950;27;47924;-16
2022/01/01 10:36:29;;;;;;;3.53;3.03;;;15.70;49.20;;;;;;5128101;27;46906;-16
2022/01/01 10:38:56;;;;;;;2.92;2.72;;;15.70;48.90;;;;;;5128207;27;47004;-16
2022/01/01 10:41:23;;;;;;;3.40;2.97;;;15.70;49.10;;;;;;5126261;27;47331;-16
2022/01/01 10:43:52;;;;;;;3.00;2.70;;;15.70;49.10;;;;;;5126774;27;48182;-16
2022/01/01 10:46:19;;;;;;;3.33;3.00;;;15.70;49.10;;;;;;5126195;27;46986;-16
2022/01/01 10:48:57;;;;;;;3.50;3.20;;;15.70;49.10;;;;;;5127289;27;47028;-16
2022/01/01 10:51:24;;;;;;;3.08;2.88;;;15.70;49.20;;;;;;5128100;27;46922;-16
2022/01/01 10:54:02;;;;;;;3.15;2.85;;;15.80;49.70;;;;;;5127295;27;47115;-16
2022/01/01 10:56:35;;;;;;;3.45;2.63;;;15.80;49.70;;;;;;5127260;27;46911;-16
2022/01/01 10:59:03;;;;;;;3.00;2.70;;;15.80;50.00;;;;;;5127624;27;46860;-15
2022/01/01 11:01:31;;;;;;;4.28;2.92;;;15.90;50.20;;;;;;5127818;27;46835;-16
2022/01/01 11:03:57;;;;;;;3.08;2.75;;;15.90;49.90;;;;;;5127328;27;47898;-16
2022/01/01 11:06:24;;;;;;;3.17;2.88;;;15.90;50.00;;;;;;5127727;27;47197;-16
2022/01/01 11:08:51;;;;;;;2.90;2.65;;;15.90;50.00;;;;;;5127530;27;46963;-16
2022/01/01 11:11:19;;;;;;;2.65;2.40;;;15.90;50.10;;;;;;5126979;27;46941;-16
2022/01/01 11:13:45;;;;;;;4.22;2.50;;;16.00;50.30;;;;;;5125586;27;48141;-16
2022/01/01 11:16:14;;;;;;;2.95;2.30;;;16.00;50.30;;;;;;5125839;27;47014;-16
2022/01/01 11:18:40;;;;;;;3.70;2.38;;;16.00;50.30;;;;;;5125945;27;47030;-16
2022/01/01 11:21:07;;;;;;;2.97;2.50;;;16.00;50.30;;;;;;5125900;27;47103;-17
2022/01/01 11:23:34;;;;;;;2.42;2.22;;;16.10;50.30;;;;;;5125597;27;48259;-16
2022/01/01 11:26:02;;;;;;;3.42;2.70;;;16.10;50.30;;;;;;5125761;27;46963;-16
2022/01/01 11:28:30;;;;;;;3.50;2.50;;;16.10;50.30;;;;;;5127452;27;46860;-16
2022/01/01 11:31:00;;;;;;;2.53;2.33;;;16.20;50.20;;;;;;5127516;27;46904;-16
2022/01/01 11:33:29;;;;;;;3.47;2.30;;;16.20;50.20;;;;;;5127156;27;48097;-16
2022/01/01 11:35:56;;;;;;;2.42;1.88;;;16.20;50.20;;;;;;5126953;27;46886;-16
2022/01/01 11:38:23;;;;;;;3.75;2.42;;;16.20;50.10;;;;;;5127258;27;46903;-16
2022/01/01 11:40:57;;;;;;;2.80;2.05;;;16.20;50.20;;;;;;5127101;27;46846;-16
2022/01/01 11:43:37;;;;;;;2.08;1.90;;;16.30;50.20;;;;;;5125926;27;46909;-16
2022/01/01 11:46:13;;;;;;;3.15;2.08;;;16.30;50.20;;;;;;5126763;27;46882;-16
2022/01/01 11:48:51;;;;;;;2.25;2.00;;;16.30;50.10;;;;;;5106156;27;46885;-16
2022/01/01 11:51:32;;;;;;;2.35;2.17;;;16.30;50.10;;;;;;5106632;27;46842;-16
2022/01/01 11:54:25;;;;;;;2.10;2.00;;;16.40;50.20;;;;;;5105649;27;47924;-16
2022/01/01 11:57:00;;;;;;;2.50;2.30;;;16.40;50.20;;;;;;5106584;27;46890;-16
2022/01/01 11:59:29;;;;;;;2.30;2.10;;;16.40;50.20;;;;;;5105238;27;46924;-16
2022/01/01 12:01:56;;;;;;;2.47;2.20;;;16.40;50.30;;;;;;5105920;27;47326;-16
2022/01/01 12:04:24;;;;;;;3.42;2.40;;;16.50;50.30;;;;;;5106102;27;48119;-16
2022/01/01 12:06:53;;;;;;;2.40;2.20;;;16.50;50.30;;;;;;5105989;27;46987;-16
2022/01/01 12:09:20;;;;;;;2.42;2.15;;;16.50;50.30;;;;;;5106076;27;46811;-16
2022/01/01 12:11:51;;;;;;;3.80;2.13;;;16.50;50.30;;;;;;5106281;27;47325;-16
2022/01/01 12:14:20;;;;;;;2.28;2.08;;;16.50;50.40;;;;;;5105769;27;48153;-15
2022/01/01 12:16:52;;;;;;;3.15;2.13;;;16.50;50.50;;;;;;5106055;27;46879;-16
2022/01/01 12:19:20;;;;;;;2.33;2.05;;;16.50;50.50;;;;;;5105630;27;46761;-16
2022/01/01 12:21:48;;;;;;;1.95;1.85;;;16.50;50.50;;;;;;5106164;27;47217;-16
2022/01/01 12:24:18;;;;;;;1.90;1.80;;;16.50;50.60;;;;;;5105810;27;47076;-17
2022/01/01 12:26:50;;;;;;;2.17;1.98;;;16.50;50.60;;;;;;5105943;27;47188;-43
2022/01/01 12:29:17;;;;;;;2.28;2.08;;;16.50;50.60;;;;;;5105918;27;46903;-16
2022/01/01 12:31:56;;;;;;;2.08;1.88;;;16.60;50.70;;;;;;5105907;27;46811;-15
2022/01/01 12:34:23;;;;;;;2.58;2.10;;;16.60;50.60;;;;;;5105642;27;46972;-16
2022/01/01 12:36:51;;;;;;;2.58;1.95;;;16.60;50.70;;;;;;5105664;27;47005;-15
2022/01/01 12:39:17;;;;;;;2.22;2.03;;;16.60;50.70;;;;;;5105367;27;46843;-16
2022/01/01 12:41:46;;;;;;;1.88;1.77;;;16.60;50.80;;;;;;5105934;27;46936;-16
2022/01/01 12:44:17;;;;;;;1.77;1.67;;;16.60;50.80;;;;;;5104982;27;48033;-16
2022/01/01 12:46:45;;;;;;;2.45;1.90;;;16.60;50.90;;;;;;5105755;27;47179;-16
2022/01/01 12:49:13;;;;;;;1.70;1.60;;;16.60;51.00;;;;;;5105279;27;47082;-15